createdAt,value
2022-11-20T00:01:46.901Z,29.53
2022-11-20T00:06:49.711Z,31.40
2022-11-20T00:11:52.554Z,32.63
2022-11-20T00:16:55.389Z,44.30
2022-11-20T00:21:58.274Z,51.93
2022-11-20T00:27:01.041Z,56.07
2022-11-20T05:31:06.601Z,27.07
2022-11-20T05:36:10.331Z,27.57
2022-11-20T05:41:15.548Z,33.43
2022-11-20T05:46:27.763Z,33.17
2022-11-20T05:51:31.262Z,36.67
2022-11-20T05:56:33.967Z,38.03
2022-11-20T06:01:37.172Z,37.17
2022-11-20T06:06:39.958Z,42.43
2022-11-20T06:11:42.689Z,36.67
2022-11-20T06:16:45.416Z,35.33
2022-11-20T06:21:50.538Z,34.50
2022-11-20T06:26:53.341Z,33.77
2022-11-20T06:31:56.068Z,34.50
2022-11-20T06:36:58.848Z,35.43
2022-11-20T06:42:01.584Z,32.07
2022-11-20T06:47:04.455Z,33.30
2022-11-20T06:52:07.241Z,34.40
2022-11-20T06:57:09.962Z,32.17
2022-11-20T07:02:13.196Z,31.13
2022-11-20T07:07:16.061Z,33.07
2022-11-20T07:12:18.795Z,33.17
2022-11-20T07:17:21.539Z,30.77
2022-11-20T07:22:24.328Z,37.27
2022-11-20T07:27:27.027Z,37.40
2022-11-20T07:32:29.831Z,37.00
2022-11-20T07:37:34.961Z,34.27
2022-11-20T07:42:37.737Z,36.37
2022-11-20T07:47:40.451Z,35.00
2022-11-20T07:52:43.719Z,34.90
2022-11-20T07:57:46.483Z,36.13
2022-11-20T08:02:49.249Z,45.43
2022-11-20T08:07:51.975Z,42.87
2022-11-20T08:13:15.513Z,39.53
2022-11-20T08:18:37.204Z,37.83
2022-11-20T08:23:40.001Z,36.73
2022-11-20T08:28:42.811Z,36.43
2022-11-20T08:33:45.960Z,38.07
2022-11-20T08:38:54.109Z,39.23
2022-11-20T08:44:04.564Z,37.37
2022-11-20T08:49:08.825Z,41.00
2022-11-20T08:54:11.703Z,40.93
2022-11-20T09:04:37.263Z,38.70
2022-11-20T09:09:40.468Z,36.07
2022-11-20T09:14:43.313Z,35.27
2022-11-20T09:19:46.574Z,33.20
2022-11-20T09:24:50.066Z,31.60
2022-11-20T09:29:52.897Z,31.93
2022-11-20T09:34:55.670Z,29.80
2022-11-20T09:39:58.402Z,28.20
2022-11-20T09:45:04.256Z,27.57
2022-11-20T09:50:33.419Z,24.17
2022-11-20T09:55:37.629Z,19.90
2022-11-20T10:00:40.851Z,19.53
2022-11-20T10:05:48.812Z,19.93
2022-11-20T10:11:01.303Z,17.67
2022-11-20T10:16:13.966Z,18.43
2022-11-20T10:21:36.964Z,20.33
2022-11-20T10:26:51.988Z,17.37
2022-11-20T10:32:01.353Z,16.87
2022-11-20T10:37:17.301Z,17.43
2022-11-20T10:42:32.830Z,17.13
2022-11-20T10:47:37.043Z,17.37
2022-11-20T10:52:46.456Z,17.53
2022-11-20T10:58:11.674Z,14.37
2022-11-20T11:03:25.136Z,15.83
2022-11-20T11:08:33.416Z,14.53
2022-11-20T11:13:36.161Z,16.33
2022-11-20T11:18:38.991Z,17.17
2022-11-20T11:23:43.205Z,16.30
2022-11-20T11:29:01.525Z,16.27
2022-11-20T11:34:08.894Z,15.90
2022-11-20T11:39:17.015Z,14.03
2022-11-20T11:44:49.830Z,16.73
2022-11-20T11:50:10.999Z,18.50
2022-11-20T11:55:36.774Z,19.90
2022-11-20T12:00:42.643Z,20.47
2022-11-20T12:05:50.838Z,20.73
2022-11-20T12:10:56.796Z,20.87
2022-11-20T12:16:00.297Z,18.47
2022-11-20T12:21:23.534Z,19.40
2022-11-20T12:26:43.075Z,20.03
2022-11-20T12:32:08.242Z,22.57
2022-11-20T12:37:33.265Z,22.27
2022-11-20T12:43:11.712Z,22.57
2022-11-20T12:48:24.905Z,18.93
2022-11-20T12:53:58.743Z,17.93
2022-11-20T12:59:32.833Z,20.73
2022-11-20T13:04:57.105Z,19.13
2022-11-20T13:10:03.384Z,19.07
2022-11-20T13:15:24.654Z,19.97
2022-11-20T13:20:27.882Z,21.63
2022-11-20T13:25:34.100Z,20.50
2022-11-20T13:30:52.058Z,22.57
2022-11-20T13:36:25.789Z,22.83
2022-11-20T13:41:59.883Z,22.47
2022-11-20T13:47:25.746Z,20.53
2022-11-20T13:53:13.638Z,23.17
2022-11-20T13:58:52.286Z,21.80
2022-11-20T14:04:06.497Z,24.70
2022-11-20T14:09:38.127Z,25.70
2022-11-20T14:14:55.478Z,26.20
2022-11-20T14:20:28.998Z,26.77
2022-11-20T14:25:35.057Z,28.50
2022-11-20T14:30:59.651Z,31.23
2022-11-20T14:36:19.082Z,27.07
2022-11-20T14:41:42.402Z,30.97
2022-11-20T14:47:05.664Z,30.90
2022-11-20T14:52:16.107Z,30.43
2022-11-20T14:57:37.097Z,29.20
2022-11-20T15:02:45.952Z,30.97
2022-11-20T15:08:09.724Z,27.77
2022-11-20T15:13:25.248Z,30.50
2022-11-20T15:18:35.777Z,27.47
2022-11-20T15:23:46.296Z,28.30
2022-11-20T15:28:52.515Z,27.10
2022-11-20T15:34:21.795Z,28.60
2022-11-20T15:39:25.066Z,27.27
2022-11-20T15:44:30.342Z,28.10
2022-11-20T15:49:33.241Z,30.47
2022-11-20T15:54:36.135Z,33.13
2022-11-20T15:59:41.000Z,31.63
2022-11-20T16:04:46.565Z,31.80
2022-11-20T16:09:55.886Z,29.03
2022-11-20T16:15:23.470Z,30.07
2022-11-20T16:20:36.828Z,28.10
2022-11-20T16:25:48.698Z,27.87
2022-11-20T16:30:59.833Z,29.10
2022-11-20T16:36:20.775Z,28.57
2022-11-20T16:41:48.975Z,28.33
2022-11-20T16:46:57.011Z,30.53
2022-11-20T16:52:03.856Z,30.83
2022-11-20T16:57:08.513Z,33.73
2022-11-20T17:02:11.701Z,31.00
2022-11-20T17:07:20.619Z,31.43
2022-11-20T17:12:28.217Z,30.13
2022-11-20T17:17:32.875Z,30.23
2022-11-20T17:22:46.188Z,28.67
2022-11-20T17:27:51.979Z,28.50
2022-11-20T17:32:56.005Z,27.50
2022-11-20T17:38:00.001Z,23.67
2022-11-20T17:43:03.728Z,22.27
2022-11-20T17:48:27.875Z,23.20
2022-11-20T17:53:39.189Z,22.03
2022-11-20T17:58:48.683Z,21.17
2022-11-20T18:04:03.965Z,20.63
2022-11-20T18:09:13.577Z,20.00
2022-11-20T18:14:45.113Z,21.57
2022-11-20T18:20:30.337Z,23.77
2022-11-20T18:25:47.696Z,21.90
2022-11-20T18:30:50.957Z,22.10
2022-11-20T18:35:58.831Z,22.80
2022-11-20T18:41:05.063Z,21.63
2022-11-20T18:46:09.003Z,20.50
2022-11-20T18:51:17.155Z,20.23
2022-11-20T18:56:41.049Z,18.50
2022-11-20T19:01:47.160Z,16.80
2022-11-20T19:06:56.380Z,16.00
2022-11-20T19:12:06.671Z,14.23
2022-11-20T19:17:11.579Z,16.23
2022-11-20T19:22:14.655Z,15.07
2022-11-20T19:27:18.057Z,16.37
2022-11-20T19:32:21.364Z,14.77
2022-11-20T19:37:27.789Z,14.80
2022-11-20T19:42:31.609Z,14.17
2022-11-20T19:48:01.021Z,14.80
2022-11-20T19:52:59.153Z,16.10
2022-11-20T19:58:04.487Z,15.50
2022-11-20T20:03:16.714Z,16.43
2022-11-20T20:08:23.860Z,16.13
2022-11-20T20:13:27.860Z,16.23
2022-11-20T20:18:31.243Z,16.40
2022-11-20T20:23:36.730Z,17.10
2022-11-20T20:28:44.256Z,15.73
2022-11-20T20:33:47.489Z,16.27
2022-11-20T20:38:55.169Z,17.30
2022-11-20T20:44:16.675Z,17.17
2022-11-20T20:49:19.808Z,18.00
2022-11-20T20:54:34.517Z,17.00
2022-11-20T20:59:39.251Z,19.03
2022-11-20T21:04:42.709Z,18.67
2022-11-20T21:09:45.950Z,19.90
2022-11-20T21:14:54.957Z,18.67
2022-11-20T21:19:57.963Z,18.97
2022-11-20T21:25:01.082Z,19.00
2022-11-20T21:30:04.414Z,19.00
2022-11-20T21:35:07.896Z,16.63
2022-11-20T21:40:14.290Z,17.37
2022-11-20T21:45:17.306Z,17.30
2022-11-20T21:50:20.364Z,17.60
2022-11-20T21:55:23.459Z,20.57
2022-11-20T22:00:27.824Z,19.47
2022-11-20T22:05:32.104Z,21.60
2022-11-20T22:10:38.049Z,18.67
2022-11-20T22:16:00.375Z,20.97
2022-11-20T22:21:08.986Z,20.37
2022-11-20T22:26:21.385Z,20.87
2022-11-20T22:31:25.993Z,21.40
2022-11-20T22:36:32.505Z,21.87
2022-11-20T22:41:36.134Z,22.33
2022-11-20T22:46:41.529Z,22.80
2022-11-20T22:51:46.427Z,23.20
2022-11-20T22:56:51.312Z,23.50
2022-11-20T23:01:54.450Z,21.20
2022-11-20T23:06:57.581Z,22.53
2022-11-20T23:12:00.929Z,20.70
2022-11-20T23:17:04.116Z,20.37
2022-11-20T23:22:07.041Z,18.13
2022-11-20T23:27:10.089Z,19.33
2022-11-20T23:32:13.315Z,19.80
2022-11-20T23:37:16.387Z,18.20
2022-11-20T23:42:19.399Z,19.53
2022-11-20T23:47:25.207Z,18.53
2022-11-20T23:52:28.168Z,18.40
2022-11-20T23:57:31.245Z,17.03
